Time;durP1;ratioP1;P1;durP2;ratioP2;P2;SDS_P1;SDS_P2;PMS_P1;PMS_P2;Temp;Humidity;BMP_temperature;BMP_pressure;BME280_temperature;BME280_humidity;BME280_pressure;Samples;Min_cycle;Max_cycle;Signal;HPM_P1;HPM_P2
2021/11/02 00:00:15;;;;;;;;;;;;;;;20.76;53.12;99491.00;7287790;19;154010;-50
2021/11/02 00:02:44;;;;;;;;;;;;;;;20.74;53.24;99490.53;7290096;19;151859;-50
2021/11/02 00:05:13;;;;;;;;;;;;;;;20.70;53.07;99487.59;7288425;19;153463;-50
2021/11/02 00:07:40;;;;;;;;;;;;;;;20.73;53.35;99497.31;7286654;19;153675;-50
2021/11/02 00:10:08;;;;;;;;;;;;;;;20.68;53.16;99489.91;7287813;19;151968;-50
2021/11/02 00:12:35;;;;;;;;;;;;;;;20.66;52.71;99489.47;7289859;19;153062;-50
2021/11/02 00:15:03;;;;;;;;;;;;;;;20.62;53.42;99493.28;7285399;19;153223;-50
2021/11/02 00:17:32;;;;;;;;;;;;;;;20.60;53.03;99499.25;7295277;19;152256;-50
2021/11/02 00:20:01;;;;;;;;;;;;;;;20.60;52.70;99493.63;7287472;19;153994;-50
2021/11/02 00:22:29;;;;;;;;;;;;;;;20.59;52.97;99503.22;7288725;19;151843;-50
2021/11/02 00:25:04;;;;;;;;;;;;;;;20.53;52.84;99498.16;7288728;19;153047;-50
2021/11/02 00:27:33;;;;;;;;;;;;;;;20.50;52.65;99494.03;7284729;19;154182;-50
2021/11/02 00:30:00;;;;;;;;;;;;;;;20.48;52.76;99490.78;7288820;19;151560;-50
2021/11/02 00:32:27;;;;;;;;;;;;;;;20.46;52.75;99497.88;7289142;19;152903;-49
2021/11/02 00:34:57;;;;;;;;;;;;;;;20.49;52.89;99494.41;7286288;19;154262;-50
2021/11/02 00:37:25;;;;;;;;;;;;;;;20.39;52.98;99484.41;7287729;19;152160;-50
2021/11/02 00:39:53;;;;;;;;;;;;;;;20.41;53.27;99485.72;7292678;19;152349;-50
2021/11/02 00:42:21;;;;;;;;;;;;;;;20.37;53.23;99489.53;7286212;19;151856;-50
2021/11/02 00:44:55;;;;;;;;;;;;;;;20.39;53.33;99490.03;7286312;19;153270;-50
2021/11/02 00:47:24;;;;;;;;;;;;;;;20.33;52.95;99488.59;7284900;19;153970;-50
2021/11/02 00:49:51;;;;;;;;;;;;;;;20.31;53.31;99491.72;7288450;19;152089;-50
2021/11/02 00:52:18;;;;;;;;;;;;;;;20.33;53.07;99488.59;7288643;19;152966;-51
2021/11/02 00:54:45;;;;;;;;;;;;;;;20.27;53.24;99487.13;7284962;19;153479;-50
2021/11/02 00:57:12;;;;;;;;;;;;;;;20.27;53.16;99481.50;7288326;19;151780;-50
2021/11/02 00:59:39;;;;;;;;;;;;;;;20.23;53.41;99484.19;7283271;19;153057;-50
2021/11/02 01:02:08;;;;;;;;;;;;;;;20.24;53.46;99491.44;7289517;19;153634;-51
2021/11/02 01:04:35;;;;;;;;;;;;;;;20.24;53.96;99490.63;7287433;19;152195;-50
2021/11/02 01:07:02;;;;;;;;;;;;;;;20.20;53.90;99495.28;7284877;19;153395;-50
2021/11/02 01:09:29;;;;;;;;;;;;;;;20.19;54.06;99502.03;7288105;19;151731;-50
2021/11/02 01:11:56;;;;;;;;;;;;;;;20.17;53.95;99501.56;7287801;19;153085;-50
2021/11/02 01:14:23;;;;;;;;;;;;;;;20.14;54.25;99505.84;7284751;19;153996;-51
2021/11/02 01:16:50;;;;;;;;;;;;;;;20.19;53.96;99508.47;7287880;19;152501;-50
2021/11/02 01:19:17;;;;;;;;;;;;;;;20.12;54.40;99505.41;7287028;19;152453;-50
2021/11/02 01:21:44;;;;;;;;;;;;;;;20.13;53.92;99507.00;7285755;19;153970;-50
2021/11/02 01:24:11;;;;;;;;;;;;;;;20.08;54.18;99510.00;7294256;19;152089;-50
2021/11/02 01:26:38;;;;;;;;;;;;;;;20.04;54.42;99503.44;7284720;19;153327;-51
2021/11/02 01:29:05;;;;;;;;;;;;;;;20.03;54.20;99507.44;7284572;19;151625;-50
2021/11/02 01:31:31;;;;;;;;;;;;;;;20.02;54.15;99511.41;7286144;19;153180;-51
2021/11/02 01:33:58;;;;;;;;;;;;;;;20.02;54.54;99513.38;7284585;19;153488;-50
2021/11/02 01:36:25;;;;;;;;;;;;;;;20.01;54.67;99517.34;7285790;19;151620;-50
2021/11/02 01:38:56;;;;;;;;;;;;;;;19.96;54.52;99513.56;7286387;19;153889;-51
2021/11/02 01:41:26;;;;;;;;;;;;;;;19.99;54.36;99512.06;7286218;19;153584;-50
2021/11/02 01:43:53;;;;;;;;;;;;;;;19.95;54.70;99511.09;7284404;19;153332;-51
2021/11/02 01:46:23;;;;;;;;;;;;;;;19.92;54.30;99508.97;7292494;19;153239;-50
2021/11/02 01:48:51;;;;;;;;;;;;;;;19.93;54.72;99500.25;7286510;19;151949;-50
2021/11/02 01:51:19;;;;;;;;;;;;;;;19.90;54.38;99498.09;7284730;19;151943;-50
2021/11/02 01:53:46;;;;;;;;;;;;;;;19.89;54.73;99501.25;7283514;19;153592;-49
2021/11/02 01:56:13;;;;;;;;;;;;;;;19.87;54.91;99504.38;7284608;19;151920;-49
2021/11/02 01:58:43;;;;;;;;;;;;;;;19.85;54.79;99498.28;7286175;19;152346;-50
2021/11/02 02:01:12;;;;;;;;;;;;;;;19.89;54.95;99502.09;7281828;19;154016;-50
2021/11/02 02:03:41;;;;;;;;;;;;;;;19.86;54.71;99499.94;7282746;19;151818;-50
2021/11/02 02:06:11;;;;;;;;;;;;;;;19.84;55.19;99493.88;7283894;19;153340;-50
2021/11/02 02:08:39;;;;;;;;;;;;;;;19.83;55.19;99494.19;7291871;19;151667;-50
2021/11/02 02:11:12;;;;;;;;;;;;;;;19.83;55.03;99499.81;7283949;19;153446;-50
2021/11/02 02:13:45;;;;;;;;;;;;;;;19.79;55.26;99501.66;7285456;19;153278;-50
2021/11/02 02:16:14;;;;;;;;;;;;;;;19.76;55.34;99503.13;7283857;19;152341;-51
2021/11/02 02:18:51;;;;;;;;;;;;;;;19.76;55.71;99502.34;7284009;19;153906;-50
2021/11/02 02:21:21;;;;;;;;;;;;;;;19.74;55.52;99508.25;7283915;19;152458;-50
2021/11/02 02:23:57;;;;;;;;;;;;;;;19.73;55.44;99501.00;7285412;19;151885;-50
2021/11/02 02:26:26;;;;;;;;;;;;;;;19.72;55.42;99496.56;7285252;19;153251;-50
2021/11/02 02:28:59;;;;;;;;;;;;;;;19.71;55.79;99502.53;7291078;19;153540;-50
2021/11/02 02:31:28;;;;;;;;;;;;;;;19.69;55.80;99502.84;7285393;19;153724;-50
2021/11/02 02:33:55;;;;;;;;;;;;;;;19.69;55.87;99502.84;7284086;19;153784;-50
2021/11/02 02:36:23;;;;;;;;;;;;;;;19.70;56.10;99504.50;7283593;19;151688;-50
2021/11/02 02:38:52;;;;;;;;;;;;;;;19.67;56.04;99493.94;7285434;19;153648;-50
2021/11/02 02:41:21;;;;;;;;;;;;;;;19.67;56.00;99498.75;7284039;19;154041;-50
2021/11/02 02:43:48;;;;;;;;;;;;;;;19.65;55.89;99507.50;7284743;19;152023;-50
2021/11/02 02:46:15;;;;;;;;;;;;;;;19.62;56.25;99501.75;7285179;19;152698;-50
2021/11/02 02:48:43;;;;;;;;;;;;;;;19.65;56.13;99501.06;7280932;19;152961;-50
2021/11/02 02:51:10;;;;;;;;;;;;;;;19.61;56.06;99495.31;7293278;19;151620;-50
2021/11/02 02:53:42;;;;;;;;;;;;;;;19.59;55.76;99496.78;7282549;19;153384;-50
2021/11/02 02:56:09;;;;;;;;;;;;;;;19.57;56.23;99493.53;7282793;19;152008;-50
2021/11/02 02:58:38;;;;;;;;;;;;;;;19.54;55.84;99501.44;7284427;19;152000;-50
2021/11/02 03:01:06;;;;;;;;;;;;;;;19.53;56.30;99508.19;7282474;19;153337;-51
2021/11/02 03:03:35;;;;;;;;;;;;;;;19.52;56.24;99502.94;7284327;19;154640;-50
2021/11/02 03:06:04;;;;;;;;;;;;;;;19.51;55.93;99506.91;7283121;19;152750;-49
2021/11/02 03:08:33;;;;;;;;;;;;;;;19.50;56.25;99506.06;7279853;19;152189;-50
2021/11/02 03:11:01;;;;;;;;;;;;;;;19.49;56.28;99495.19;7282544;19;152213;-50
2021/11/02 03:13:32;;;;;;;;;;;;;;;19.47;56.20;99501.16;7291113;19;152738;-50
2021/11/02 03:16:04;;;;;;;;;;;;;;;19.46;56.18;99502.31;7284615;19;152069;-50
2021/11/02 03:55:06;;;;;;;;;;;;;;;19.27;56.28;99507.44;7281388;19;153137;-50
2021/11/02 04:34:24;;;;;;;;;;;;;;;19.12;56.06;99532.38;7282150;19;151966;-50
2021/11/02 04:45:15;;;;;;;;;;;;;;;19.09;56.38;99545.88;7294226;19;152996;-50
2021/11/02 05:10:41;;;;;;;;;;;;;;;19.00;56.60;99564.66;7287800;19;152198;-50
2021/11/02 06:00:06;;;;;;;;;;;;;;;19.17;57.08;99575.00;7284286;19;153115;-50
2021/11/02 06:08:06;;;;;;;;;;;;;;;19.25;57.99;99584.56;7284547;19;152639;-50
2021/11/02 06:29:04;;;;;;;;;;;;;;;19.63;57.60;99581.81;7283094;19;152027;-50
2021/11/02 06:31:36;;;;;;;;;;;;;;;19.68;57.68;99587.25;7284514;19;153813;-50
2021/11/02 06:50:04;;;;;;;;;;;;;;;20.04;56.89;99598.78;7282357;19;153001;-50
2021/11/02 06:52:55;;;;;;;;;;;;;;;20.09;56.68;99590.19;7281599;19;153335;-50
2021/11/02 06:55:39;;;;;;;;;;;;;;;20.16;56.65;99589.66;7284437;19;151983;-50
2021/11/02 07:10:52;;;;;;;;;;;;;;;20.24;56.19;99600.81;7280795;19;153244;-50
2021/11/02 07:17:05;;;;;;;;;;;;;;;20.56;57.12;99604.09;7284392;19;152039;-50
2021/11/02 07:19:35;;;;;;;;;;;;;;;20.63;56.73;99604.38;7284417;19;152732;-50
2021/11/02 07:22:21;;;;;;;;;;;;;;;20.72;55.62;99602.31;7279957;19;154367;-51
2021/11/02 08:45:40;;;;;;;;;;;;;;;21.05;48.92;99658.53;7289651;19;151731;-51
2021/11/02 08:48:07;;;;;;;;;;;;;;;21.03;48.78;99658.06;7283579;19;153467;-51
2021/11/02 08:50:41;;;;;;;;;;;;;;;21.02;48.39;99667.66;7285179;19;154536;-51
2021/11/02 08:53:09;;;;;;;;;;;;;;;21.01;48.72;99666.81;7284850;19;152176;-52
2021/11/02 08:55:36;;;;;;;;;;;;;;;21.02;48.51;99662.03;7279618;19;153302;-50
2021/11/02 08:58:04;;;;;;;;;;;;;;;20.99;48.29;99671.94;7283620;19;152079;-51
2021/11/02 09:00:32;;;;;;;;;;;;;;;20.98;48.53;99666.69;7285973;19;153736;-51
2021/11/02 09:03:06;;;;;;;;;;;;;;;20.98;48.49;99669.50;7283572;19;154689;-51
2021/11/02 09:05:34;;;;;;;;;;;;;;;20.96;48.50;99669.00;7284423;19;153171;-51
2021/11/02 09:08:02;;;;;;;;;;;;;;;20.96;48.56;99666.19;7286640;19;152173;-51
2021/11/02 09:10:29;;;;;;;;;;;;;;;20.94;48.67;99665.75;7281460;19;154296;-51
2021/11/02 09:12:57;;;;;;;;;;;;;;;20.90;48.78;99653.53;7287463;19;151899;-51
2021/11/02 09:15:27;;;;;;;;;;;;;;;20.90;49.09;99667.56;7285112;19;153348;-51
2021/11/02 09:17:55;;;;;;;;;;;;;;;20.88;48.72;99664.28;7291686;19;153923;-51
2021/11/02 09:20:23;;;;;;;;;;;;;;;20.85;48.95;99666.59;7285435;19;153222;-52
2021/11/02 09:22:50;;;;;;;;;;;;;;;20.83;49.25;99660.53;7286466;19;153978;-51
2021/11/02 09:25:18;;;;;;;;;;;;;;;20.81;49.19;99662.00;7286876;19;153221;-51
2021/11/02 09:27:46;;;;;;;;;;;;;;;20.80;49.22;99664.00;7286848;19;153425;-51
2021/11/02 09:30:13;;;;;;;;;;;;;;;20.79;49.40;99668.00;7283250;19;152618;-51
2021/11/02 09:32:42;;;;;;;;;;;;;;;20.78;49.11;99659.91;7285144;19;152890;-51
2021/11/02 09:35:10;;;;;;;;;;;;;;;20.76;48.97;99668.66;7287356;19;152751;-52
2021/11/02 09:37:38;;;;;;;;;;;;;;;20.74;49.23;99668.19;7283436;19;154031;-52
2021/11/02 09:40:10;;;;;;;;;;;;;;;20.74;49.24;99668.19;7292096;19;151915;-50
2021/11/02 09:42:53;;;;;;;;;;;;;;;20.73;49.37;99674.97;7282603;19;153312;-51
2021/11/02 09:45:40;;;;;;;;;;;;;;;20.73;49.47;99669.34;7286538;19;151882;-52
2021/11/02 09:48:27;;;;;;;;;;;;;;;20.72;49.46;99672.47;7285045;19;153370;-51
2021/11/02 09:50:57;;;;;;;;;;;;;;;20.71;49.44;99668.06;7281186;19;154633;-53
2021/11/02 09:53:26;;;;;;;;;;;;;;;20.69;49.55;99668.38;7283965;19;152054;-51
2021/11/02 09:56:02;;;;;;;;;;;;;;;20.69;49.30;99671.19;7284367;19;153696;-52
2021/11/02 09:58:32;;;;;;;;;;;;;;;20.71;48.95;99670.88;7283464;19;153234;-51
2021/11/02 10:01:02;;;;;;;;;;;;;;;20.69;48.91;99671.19;7285165;19;151782;-52
2021/11/02 10:03:33;;;;;;;;;;;;;;;20.68;49.14;99663.09;7292170;19;153187;-50
2021/11/02 10:06:09;;;;;;;;;;;;;;;20.67;48.93;99669.91;7286415;19;151661;-52
2021/11/02 10:08:39;;;;;;;;;;;;;;;20.67;49.32;99661.47;7286277;19;153150;-51
2021/11/02 10:11:19;;;;;;;;;;;;;;;20.66;49.45;99680.31;7284169;19;152648;-51
2021/11/02 10:14:06;;;;;;;;;;;;;;;20.63;49.43;99672.53;7283763;19;152484;-52
2021/11/02 10:16:40;;;;;;;;;;;;;;;20.67;49.60;99673.50;7283317;19;153322;-51
2021/11/02 10:19:11;;;;;;;;;;;;;;;20.65;50.21;99675.03;7285378;19;153770;-52
2021/11/02 10:21:47;;;;;;;;;;;;;;;20.67;50.38;99675.50;7285691;19;151688;-52
2021/11/02 10:24:18;;;;;;;;;;;;;;;20.70;51.65;99672.84;7283454;19;152719;-52
2021/11/02 10:26:48;;;;;;;;;;;;;;;20.69;52.81;99674.00;7291989;19;154834;-51
2021/11/02 10:29:18;;;;;;;;;;;;;;;20.69;53.08;99668.38;7285253;19;153063;-52
2021/11/02 10:31:48;;;;;;;;;;;;;;;20.69;52.96;99671.19;7283716;19;153787;-50
2021/11/02 10:34:18;;;;;;;;;;;;;;;20.69;54.32;99685.22;7283622;19;152047;-53
2021/11/02 10:36:50;;;;;;;;;;;;;;;20.73;55.54;99682.56;7284958;19;153956;-50
2021/11/02 10:39:25;;;;;;;;;;;;;;;20.73;54.95;99680.56;7282092;19;154437;-52
2021/11/02 10:42:14;;;;;;;;;;;;;;;20.73;54.36;99677.75;7283720;19;151889;-52
2021/11/02 10:44:46;;;;;;;;;;;;;;;20.78;54.96;99676.75;7282946;19;152086;-53
2021/11/02 10:47:17;;;;;;;;;;;;;;;20.78;55.73;99669.16;7282234;19;153322;-51
2021/11/02 10:49:46;;;;;;;;;;;;;;;20.86;57.28;99671.06;7289546;19;152651;-52
2021/11/02 10:52:18;;;;;;;;;;;;;;;20.89;60.26;99666.75;7281248;19;152546;-51
2021/11/02 10:55:04;;;;;;;;;;;;;;;20.92;59.91;99671.69;7283891;19;152937;-51
2021/11/02 10:57:37;;;;;;;;;;;;;;;20.93;61.56;99678.94;7283634;19;153083;-51
2021/11/02 11:00:06;;;;;;;;;;;;;;;20.92;61.61;99682.09;7281091;19;152280;-51
2021/11/02 11:02:34;;;;;;;;;;;;;;;20.98;60.07;99677.94;7285042;19;151419;-51
2021/11/02 11:05:04;;;;;;;;;;;;;;;20.96;60.03;99680.25;7281815;19;153573;-51
2021/11/02 11:07:36;;;;;;;;;;;;;;;20.96;59.41;99683.88;7280901;19;153949;-52
2021/11/02 11:10:04;;;;;;;;;;;;;;;21.02;57.36;99684.50;7288652;19;151877;-51
2021/11/02 11:12:34;;;;;;;;;;;;;;;20.98;57.15;99689.16;7280070;19;153928;-51
2021/11/02 11:15:03;;;;;;;;;;;;;;;20.96;56.69;99686.69;7284850;19;151856;-51
2021/11/02 11:17:31;;;;;;;;;;;;;;;21.01;56.85;99694.91;7282776;19;153613;-53
2021/11/02 11:20:05;;;;;;;;;;;;;;;20.97;57.79;99696.75;7282717;19;153853;-51
2021/11/02 11:22:34;;;;;;;;;;;;;;;21.02;55.47;99692.91;7282314;19;152049;-52
2021/11/02 11:25:04;;;;;;;;;;;;;;;20.99;55.75;99696.41;7284415;19;153092;-52
2021/11/02 11:27:33;;;;;;;;;;;;;;;21.03;56.05;99698.19;7281264;19;152792;-51
2021/11/02 11:30:03;;;;;;;;;;;;;;;21.05;58.16;99690.25;7283147;19;152234;-51
2021/11/02 11:32:34;;;;;;;;;;;;;;;21.08;56.36;99694.34;7285328;19;152772;-53
2021/11/02 11:35:02;;;;;;;;;;;;;;;21.06;60.53;99694.69;7281938;19;152727;-52
2021/11/02 11:37:32;;;;;;;;;;;;;;;21.07;60.60;99689.91;7282355;19;152984;-51
2021/11/02 11:40:00;;;;;;;;;;;;;;;21.03;57.88;99691.75;7283593;19;153316;-52
2021/11/02 11:42:30;;;;;;;;;;;;;;;21.09;58.27;99690.38;7283793;19;151716;-51
2021/11/02 11:44:59;;;;;;;;;;;;;;;21.07;58.14;99689.91;7288049;19;152654;-51
2021/11/02 11:47:26;;;;;;;;;;;;;;;21.04;57.05;99684.97;7286376;19;153835;-51
2021/11/02 11:49:54;;;;;;;;;;;;;;;21.03;55.87;99680.53;7289652;19;152307;-52
2021/11/02 11:52:22;;;;;;;;;;;;;;;21.02;54.30;99673.25;7287663;19;152380;-53
2021/11/02 11:54:52;;;;;;;;;;;;;;;21.01;54.31;99683.66;7295366;19;154274;-51
2021/11/02 11:57:21;;;;;;;;;;;;;;;21.01;53.85;99680.88;7290269;19;153724;-51
2021/11/02 11:59:49;;;;;;;;;;;;;;;21.03;53.51;99681.31;7288269;19;154047;-51
2021/11/02 12:02:36;;;;;;;;;;;;;;;21.06;53.88;99674.22;7287084;19;153795;-51
2021/11/02 12:05:05;;;;;;;;;;;;;;;21.09;53.45;99679.13;7289026;19;153590;-52
2021/11/02 12:07:35;;;;;;;;;;;;;;;21.14;53.51;99673.34;7289183;19;153476;-53
2021/11/02 12:10:03;;;;;;;;;;;;;;;21.17;53.88;99673.47;7289155;19;151942;-52
2021/11/02 12:12:31;;;;;;;;;;;;;;;21.21;53.35;99668.81;7289510;19;152094;-52
2021/11/02 12:14:59;;;;;;;;;;;;;;;21.24;53.43;99667.31;7286938;19;153953;-52
2021/11/02 12:17:29;;;;;;;;;;;;;;;21.28;53.48;99665.47;7297554;19;152006;-52
2021/11/02 12:20:11;;;;;;;;;;;;;;;21.31;53.78;99664.75;7286357;19;152196;-51
2021/11/02 12:22:49;;;;;;;;;;;;;;;21.34;53.43;99666.91;7287217;19;152000;-52
2021/11/02 12:25:20;;;;;;;;;;;;;;;21.39;53.56;99665.88;7288381;19;153252;-51
2021/11/02 12:27:48;;;;;;;;;;;;;;;21.41;53.67;99663.50;7287663;19;152168;-51
2021/11/02 12:30:16;;;;;;;;;;;;;;;21.42;53.61;99659.53;7289087;19;151844;-51
2021/11/02 12:32:46;;;;;;;;;;;;;;;21.43;53.31;99650.78;7289093;19;153331;-52
2021/11/02 12:35:19;;;;;;;;;;;;;;;21.45;52.94;99653.22;7287915;19;154073;-51
2021/11/02 12:37:51;;;;;;;;;;;;;;;21.48;53.23;99659.00;7289367;19;152536;-51
2021/11/02 12:40:20;;;;;;;;;;;;;;;21.49;52.81;99649.38;7296513;19;152669;-51
2021/11/02 12:42:59;;;;;;;;;;;;;;;21.53;53.13;99646.72;7286702;19;152767;-51
2021/11/02 12:45:27;;;;;;;;;;;;;;;21.55;53.11;99641.56;7289347;19;152753;-50
2021/11/02 12:47:59;;;;;;;;;;;;;;;21.55;52.67;99648.00;7286827;19;155003;-51
2021/11/02 12:50:28;;;;;;;;;;;;;;;21.57;53.05;99642.03;7287188;19;152442;-52
2021/11/02 12:52:56;;;;;;;;;;;;;;;21.59;52.83;99640.50;7288610;19;153180;-52
2021/11/02 12:55:28;;;;;;;;;;;;;;;21.60;52.62;99644.97;7285897;19;153963;-50
2021/11/02 12:58:15;;;;;;;;;;;;;;;21.62;52.88;99642.63;7287046;19;151782;-50
2021/11/02 13:00:51;;;;;;;;;;;;;;;21.62;52.53;99639.81;7286830;19;152837;-49
2021/11/02 13:03:22;;;;;;;;;;;;;;;21.62;52.75;99641.81;7292313;19;151936;-49
2021/11/02 13:05:58;;;;;;;;;;;;;;;21.63;52.49;99649.88;7286084;19;152050;-49
2021/11/02 13:08:29;;;;;;;;;;;;;;;21.64;52.24;99645.91;7287518;19;153313;-50
2021/11/02 13:11:18;;;;;;;;;;;;;;;21.65;52.27;99641.94;7284822;19;151734;-49
2021/11/02 13:13:48;;;;;;;;;;;;;;;21.65;51.92;99636.31;7286280;19;151670;-50
2021/11/02 13:16:15;;;;;;;;;;;;;;;21.64;52.43;99648.72;7287142;19;153553;-51
2021/11/02 13:18:42;;;;;;;;;;;;;;;21.62;51.99;99642.63;7288368;19;151734;-49
2021/11/02 13:21:13;;;;;;;;;;;;;;;21.61;51.73;99640.16;7285716;19;153269;-49
2021/11/02 13:23:42;;;;;;;;;;;;;;;21.59;51.68;99645.31;7293830;19;152718;-51
2021/11/02 13:26:12;;;;;;;;;;;;;;;21.57;51.98;99633.59;7287970;19;152116;-50
2021/11/02 13:28:39;;;;;;;;;;;;;;;21.55;51.99;99636.75;7286714;19;153900;-49
2021/11/02 13:31:06;;;;;;;;;;;;;;;21.54;51.61;99643.53;7285494;19;151735;-51
2021/11/02 13:33:33;;;;;;;;;;;;;;;21.52;51.79;99645.88;7285352;19;153484;-50
2021/11/02 13:36:02;;;;;;;;;;;;;;;21.50;51.96;99644.56;7286942;19;155015;-49
2021/11/02 13:38:33;;;;;;;;;;;;;;;21.48;51.78;99636.50;7286977;19;151586;-50
2021/11/02 13:41:03;;;;;;;;;;;;;;;21.50;51.75;99633.34;7286421;19;152061;-50
2021/11/02 13:43:35;;;;;;;;;;;;;;;21.46;51.43;99632.38;7283805;19;153262;-50
2021/11/02 13:46:02;;;;;;;;;;;;;;;21.47;51.43;99634.84;7293540;19;151909;-49
2021/11/02 13:48:32;;;;;;;;;;;;;;;21.47;51.54;99632.06;7283365;19;152409;-50
2021/11/02 13:51:00;;;;;;;;;;;;;;;21.48;51.54;99630.06;7286422;19;152725;-50
2021/11/02 13:53:32;;;;;;;;;;;;;;;21.45;50.98;99634.38;7285849;19;152689;-50
2021/11/02 13:56:03;;;;;;;;;;;;;;;21.44;51.31;99637.56;7286048;19;152423;-50
2021/11/02 13:58:31;;;;;;;;;;;;;;;21.41;50.95;99636.25;7284176;19;151787;-50
2021/11/02 14:00:58;;;;;;;;;;;;;;;21.39;51.15;99638.59;7283741;19;153326;-50
2021/11/02 14:03:27;;;;;;;;;;;;;;;21.40;51.14;99634.59;7282999;19;154512;-50
2021/11/02 14:05:55;;;;;;;;;;;;;;;21.36;51.44;99630.00;7287322;19;152131;-50
2021/11/02 14:08:25;;;;;;;;;;;;;;;21.33;51.00;99639.13;7288272;19;153749;-50
2021/11/02 14:10:54;;;;;;;;;;;;;;;21.33;50.88;99637.16;7286349;19;151800;-50
2021/11/02 14:13:24;;;;;;;;;;;;;;;21.29;50.98;99634.22;7283126;19;153366;-50
2021/11/02 14:16:00;;;;;;;;;;;;;;;21.26;51.39;99628.44;7286040;19;152193;-50
2021/11/02 14:18:29;;;;;;;;;;;;;;;21.21;51.50;99628.69;7284448;19;152189;-50
2021/11/02 14:20:56;;;;;;;;;;;;;;;21.21;51.47;99629.47;7287406;19;152471;-51
2021/11/02 14:23:26;;;;;;;;;;;;;;;21.15;51.50;99630.06;7285097;19;154245;-49
2021/11/02 14:26:12;;;;;;;;;;;;;;;21.14;51.11;99626.44;7286773;19;151622;-50
2021/11/02 14:28:44;;;;;;;;;;;;;;;21.09;51.72;99629.41;7284316;19;152643;-51
2021/11/02 14:31:31;;;;;;;;;;;;;;;21.10;51.33;99624.63;7290552;19;153946;-49
2021/11/02 14:33:58;;;;;;;;;;;;;;;21.10;50.92;99624.63;7284395;19;152070;-51
2021/11/02 14:36:32;;;;;;;;;;;;;;;21.09;50.87;99629.41;7284775;19;153339;-51
2021/11/02 14:38:59;;;;;;;;;;;;;;;21.06;50.56;99635.72;7285731;19;152191;-51
2021/11/02 14:41:29;;;;;;;;;;;;;;;21.12;50.68;99630.72;7284018;19;152205;-52
2021/11/02 14:43:59;;;;;;;;;;;;;;;21.11;50.27;99629.91;7282694;19;154189;-52
2021/11/02 14:46:31;;;;;;;;;;;;;;;21.13;50.62;99635.19;7285225;19;152228;-51
2021/11/02 14:48:59;;;;;;;;;;;;;;;21.09;50.59;99625.78;7282850;19;152897;-50
2021/11/02 14:51:27;;;;;;;;;;;;;;;21.07;49.92;99636.56;7283113;19;153790;-51
2021/11/02 14:53:54;;;;;;;;;;;;;;;21.04;50.53;99637.22;7290221;19;151765;-51
2021/11/02 14:56:29;;;;;;;;;;;;;;;21.04;51.03;99640.84;7282482;19;152563;-50
2021/11/02 14:58:57;;;;;;;;;;;;;;;21.01;50.95;99638.75;7284663;19;152197;-51
2021/11/02 15:01:26;;;;;;;;;;;;;;;20.95;51.36;99647.69;7282837;19;154888;-51
2021/11/02 15:04:13;;;;;;;;;;;;;;;20.94;51.51;99627.22;7283947;19;153258;-51
2021/11/02 15:06:41;;;;;;;;;;;;;;;20.92;51.58;99640.81;7284931;19;152331;-51
2021/11/02 15:09:10;;;;;;;;;;;;;;;20.92;51.70;99639.97;7285434;19;153157;-51
2021/11/02 15:11:38;;;;;;;;;;;;;;;20.92;51.46;99640.81;7282431;19;156073;-51
2021/11/02 15:14:06;;;;;;;;;;;;;;;20.91;51.39;99644.75;7289464;19;151904;-52
2021/11/02 15:16:40;;;;;;;;;;;;;;;20.90;51.29;99636.69;7284089;19;154086;-52
2021/11/02 15:19:07;;;;;;;;;;;;;;;20.86;50.90;99637.38;7280058;19;152313;-52
2021/11/02 15:21:36;;;;;;;;;;;;;;;20.85;51.15;99638.53;7285991;19;153150;-50
2021/11/02 15:24:07;;;;;;;;;;;;;;;20.84;51.01;99644.50;7281164;19;154087;-51
2021/11/02 15:26:38;;;;;;;;;;;;;;;20.82;51.40;99639.22;7284972;19;152252;-51
2021/11/02 15:29:05;;;;;;;;;;;;;;;20.79;51.20;99639.91;7283879;19;152825;-51
2021/11/02 15:31:32;;;;;;;;;;;;;;;20.80;51.05;99637.94;7282432;19;153951;-51
2021/11/02 15:34:10;;;;;;;;;;;;;;;20.79;51.43;99648.34;7283384;19;151959;-52
2021/11/02 15:36:37;;;;;;;;;;;;;;;20.75;51.24;99641.75;7289364;19;153166;-51
2021/11/02 15:39:05;;;;;;;;;;;;;;;20.74;51.51;99648.53;7281954;19;152575;-50
2021/11/02 15:41:33;;;;;;;;;;;;;;;20.72;51.30;99652.84;7282810;19;153231;-51
2021/11/02 15:44:04;;;;;;;;;;;;;;;20.67;51.37;99650.25;7280899;19;154486;-52
2021/11/02 15:46:34;;;;;;;;;;;;;;;20.65;51.24;99647.78;7284071;19;151868;-50
2021/11/02 15:49:03;;;;;;;;;;;;;;;20.62;51.78;99656.06;7280746;19;152009;-50
2021/11/02 15:51:33;;;;;;;;;;;;;;;20.62;51.43;99650.44;7279845;19;152386;-50
2021/11/02 15:54:05;;;;;;;;;;;;;;;20.61;51.62;99649.63;7281352;19;153644;-53
2021/11/02 15:56:32;;;;;;;;;;;;;;;20.53;51.16;99655.31;7283713;19;153637;-52
2021/11/02 15:59:01;;;;;;;;;;;;;;;20.59;51.59;99659.53;7286617;19;153228;-52
2021/11/02 16:01:29;;;;;;;;;;;;;;;20.63;51.08;99657.69;7279793;19;153478;-51
2021/11/02 16:03:59;;;;;;;;;;;;;;;20.65;51.17;99660.97;7279930;19;153868;-51
2021/11/02 16:06:26;;;;;;;;;;;;;;;20.65;50.96;99667.44;7281281;19;151903;-52
2021/11/02 16:08:55;;;;;;;;;;;;;;;20.66;50.91;99657.03;7284287;19;152735;-52
2021/11/02 16:11:23;;;;;;;;;;;;;;;20.70;51.00;99666.41;7281625;19;153585;-52
2021/11/02 16:13:51;;;;;;;;;;;;;;;20.72;51.18;99656.47;7283313;19;152034;-51
2021/11/02 16:16:19;;;;;;;;;;;;;;;20.74;50.75;99665.38;7280685;19;152015;-51
2021/11/02 16:18:46;;;;;;;;;;;;;;;20.76;51.21;99665.84;7279253;19;153268;-52
2021/11/02 16:21:13;;;;;;;;;;;;;;;20.78;50.98;99666.34;7290569;19;152126;-52
2021/11/02 16:23:41;;;;;;;;;;;;;;;20.79;50.91;99668.00;7279317;19;153993;-52
2021/11/02 16:26:11;;;;;;;;;;;;;;;20.81;51.04;99676.03;7282330;19;152892;-52
2021/11/02 16:28:38;;;;;;;;;;;;;;;20.83;50.78;99668.13;7282502;19;153326;-51
2021/11/02 16:31:06;;;;;;;;;;;;;;;20.87;50.56;99666.28;7286531;19;153477;-50
2021/11/02 16:33:36;;;;;;;;;;;;;;;20.88;50.93;99667.09;7287693;19;152358;-51
2021/11/02 16:36:06;;;;;;;;;;;;;;;20.89;50.42;99663.97;7288842;19;153516;-52
2021/11/02 16:38:35;;;;;;;;;;;;;;;20.92;50.80;99671.69;7285509;19;152048;-51
2021/11/02 16:41:05;;;;;;;;;;;;;;;20.93;50.62;99673.34;7287768;19;152210;-51
2021/11/02 16:43:34;;;;;;;;;;;;;;;20.94;50.29;99671.34;7292373;19;152913;-52
2021/11/02 16:46:03;;;;;;;;;;;;;;;20.95;50.41;99678.59;7288956;19;151917;-52
2021/11/02 16:48:34;;;;;;;;;;;;;;;20.97;50.22;99679.91;7286503;19;153226;-51
2021/11/02 16:51:01;;;;;;;;;;;;;;;20.98;50.05;99677.94;7285387;19;152568;-51
2021/11/02 16:53:28;;;;;;;;;;;;;;;20.98;50.33;99675.13;7285666;19;151874;-52
2021/11/02 16:55:59;;;;;;;;;;;;;;;20.99;49.99;99671.13;7287468;19;151771;-53
2021/11/02 16:58:28;;;;;;;;;;;;;;;21.00;49.98;99678.38;7284939;19;153683;-52
2021/11/02 17:01:09;;;;;;;;;;;;;;;21.01;50.34;99680.88;7286519;19;151929;-52
2021/11/02 17:03:36;;;;;;;;;;;;;;;21.01;50.05;99680.03;7288370;19;153449;-51
2021/11/02 17:06:06;;;;;;;;;;;;;;;21.02;50.16;99679.72;7293921;19;153781;-52
2021/11/02 17:08:33;;;;;;;;;;;;;;;21.03;49.83;99681.31;7288143;19;152585;-51
2021/11/02 17:11:03;;;;;;;;;;;;;;;21.04;49.61;99684.97;7273645;19;154039;-52
2021/11/02 17:13:34;;;;;;;;;;;;;;;21.06;49.56;99685.44;7279000;19;153083;-51
2021/11/02 17:16:10;;;;;;;;;;;;;;;21.07;49.79;99684.28;7286666;19;152990;-52
2021/11/02 17:18:40;;;;;;;;;;;;;;;21.09;49.70;99693.19;7286189;19;153363;-52
2021/11/02 17:21:08;;;;;;;;;;;;;;;21.10;49.54;99692.84;7286239;19;151975;-53
2021/11/02 17:23:36;;;;;;;;;;;;;;;21.10;49.84;99697.63;7287006;19;153086;-50
2021/11/02 17:26:05;;;;;;;;;;;;;;;21.10;49.97;99692.84;7293135;19;153240;-50
2021/11/02 17:28:33;;;;;;;;;;;;;;;21.10;50.12;99697.63;7286502;19;153573;-52
2021/11/02 17:31:01;;;;;;;;;;;;;;;21.12;50.37;99698.13;7286818;19;153290;-50
2021/11/02 17:33:28;;;;;;;;;;;;;;;21.13;49.84;99696.97;7283397;19;151856;-52
2021/11/02 17:35:56;;;;;;;;;;;;;;;21.15;49.79;99706.72;7288524;19;152611;-52
2021/11/02 17:38:23;;;;;;;;;;;;;;;21.16;50.09;99707.53;7284531;19;154014;-50